createdAt,value
2023-05-24T00:01:29.340Z,17.60
2023-05-24T00:06:34.928Z,17.70
2023-05-24T00:11:37.601Z,17.40
2023-05-24T00:16:40.468Z,17.60
2023-05-24T00:21:43.055Z,17.60
2023-05-24T00:26:45.657Z,17.30
2023-05-24T00:31:48.261Z,17.50
2023-05-24T00:36:50.908Z,17.50
2023-05-24T00:41:53.458Z,17.70
2023-05-24T00:46:56.384Z,17.70
2023-05-24T00:51:59.976Z,17.70
2023-05-24T00:57:02.596Z,17.70
2023-05-24T01:02:05.324Z,17.90
2023-05-24T01:07:22.020Z,18.50
2023-05-24T01:12:59.623Z,18.60
2023-05-24T01:18:11.721Z,18.50
2023-05-24T01:23:26.446Z,18.60
2023-05-24T01:28:31.796Z,18.30
2023-05-24T01:33:34.420Z,18.00
2023-05-24T01:38:39.022Z,17.50
2023-05-24T01:43:48.877Z,17.00
2023-05-24T01:49:07.506Z,17.10
2023-05-24T01:54:12.182Z,16.70
2023-05-24T01:59:15.871Z,17.00
2023-05-24T02:04:18.670Z,16.90
2023-05-24T02:09:21.295Z,17.10
2023-05-24T02:14:26.424Z,17.10
2023-05-24T02:19:28.974Z,17.20
2023-05-24T02:24:31.417Z,17.00
2023-05-24T02:29:33.889Z,16.80
2023-05-24T02:34:36.527Z,16.90
2023-05-24T02:39:39.146Z,16.80
2023-05-24T02:44:42.981Z,16.40
2023-05-24T02:49:45.797Z,16.30
2023-05-24T02:54:48.569Z,15.80
2023-05-24T02:59:53.360Z,16.20
2023-05-24T03:04:55.941Z,16.20
2023-05-24T03:09:58.601Z,16.10
2023-05-24T03:15:02.191Z,16.10
2023-05-24T03:20:07.336Z,16.60
2023-05-24T03:25:10.426Z,16.20
2023-05-24T03:30:14.054Z,16.50
2023-05-24T03:35:27.694Z,16.50
2023-05-24T03:40:33.750Z,16.90
2023-05-24T03:45:48.475Z,17.10
2023-05-24T03:50:51.459Z,16.50
2023-05-24T03:55:54.147Z,15.80
2023-05-24T04:00:57.994Z,16.00
2023-05-24T04:06:00.490Z,16.40
2023-05-24T04:11:03.026Z,16.20
2023-05-24T04:16:05.689Z,17.00
2023-05-24T04:21:14.640Z,17.10
2023-05-24T04:26:17.859Z,17.00
2023-05-24T04:31:21.591Z,17.00
2023-05-24T04:36:25.225Z,17.80
2023-05-24T04:41:29.175Z,18.10
2023-05-24T04:46:31.787Z,18.30
2023-05-24T04:51:34.577Z,18.30
2023-05-24T04:56:38.628Z,18.30
2023-05-24T05:01:41.527Z,18.00
2023-05-24T05:06:44.908Z,18.20
2023-05-24T05:11:48.335Z,18.00
2023-05-24T05:16:51.140Z,17.70
2023-05-24T05:21:53.773Z,16.90
2023-05-24T05:26:56.402Z,16.80
2023-05-24T05:31:58.953Z,17.00
2023-05-24T05:37:01.804Z,17.10
2023-05-24T05:42:04.570Z,16.60
2023-05-24T05:47:08.730Z,16.70
2023-05-24T05:52:11.818Z,16.60
2023-05-24T05:57:16.374Z,16.80
2023-05-24T06:02:19.333Z,17.20
2023-05-24T06:07:21.764Z,17.20
2023-05-24T06:12:24.260Z,17.60
2023-05-24T06:17:28.240Z,17.20
2023-05-24T06:22:30.766Z,16.80
2023-05-24T06:27:33.309Z,16.80
2023-05-24T06:32:36.128Z,16.90
2023-05-24T06:37:38.721Z,17.20
2023-05-24T06:42:41.437Z,18.00
2023-05-24T06:47:44.068Z,18.30
2023-05-24T06:52:46.796Z,17.90
2023-05-24T06:57:49.296Z,17.70
2023-05-24T07:02:51.915Z,17.60
2023-05-24T07:07:54.410Z,18.00
2023-05-24T07:12:56.968Z,18.30
2023-05-24T07:18:00.263Z,18.20
2023-05-24T07:23:03.976Z,18.00
2023-05-24T07:28:07.064Z,18.20
2023-05-24T07:33:09.569Z,18.30
2023-05-24T07:38:12.629Z,18.50
2023-05-24T07:43:15.536Z,17.40
2023-05-24T07:48:19.152Z,16.30
2023-05-24T07:53:23.004Z,16.50
2023-05-24T07:58:25.650Z,17.60
2023-05-24T08:03:28.853Z,17.90
2023-05-24T08:08:31.703Z,18.30
2023-05-24T08:13:34.567Z,15.20
2023-05-24T08:18:37.090Z,14.50
2023-05-24T08:23:39.555Z,13.60
2023-05-24T08:28:42.047Z,13.20
2023-05-24T08:33:44.641Z,13.20
2023-05-24T08:38:47.219Z,13.20
2023-05-24T08:43:50.985Z,13.00
2023-05-24T08:48:53.894Z,12.90
2023-05-24T08:53:59.093Z,14.30
2023-05-24T08:59:01.783Z,14.80
2023-05-24T09:09:11.138Z,16.20
2023-05-24T09:14:14.433Z,16.10
2023-05-24T09:19:17.610Z,16.20
2023-05-24T09:24:20.389Z,16.40
2023-05-24T09:29:27.101Z,17.00
2023-05-24T09:34:29.642Z,17.00
2023-05-24T09:39:32.468Z,17.00
2023-05-24T09:44:35.185Z,17.10
2023-05-24T09:49:38.280Z,17.30
2023-05-24T09:54:41.784Z,17.30
2023-05-24T09:59:44.838Z,17.40
2023-05-24T10:04:47.961Z,17.20
2023-05-24T10:09:51.803Z,17.40
2023-05-24T10:14:57.597Z,18.00
2023-05-24T10:20:00.211Z,18.50
2023-05-24T10:25:05.581Z,18.10
2023-05-24T10:30:25.985Z,17.70
2023-05-24T10:35:30.502Z,18.20
2023-05-24T10:40:33.539Z,18.30
2023-05-24T10:45:41.409Z,18.10
2023-05-24T10:50:44.810Z,18.10
2023-05-24T10:56:06.354Z,18.30
2023-05-24T11:01:14.376Z,17.80
2023-05-24T11:06:17.024Z,17.70
2023-05-24T11:11:30.345Z,18.10
2023-05-24T11:16:40.483Z,18.10
2023-05-24T11:21:45.664Z,18.30
2023-05-24T11:26:48.228Z,18.20
2023-05-24T11:31:54.299Z,18.40
2023-05-24T11:36:57.037Z,18.20
2023-05-24T11:42:00.303Z,17.80
2023-05-24T11:47:04.881Z,18.10
2023-05-24T11:52:07.580Z,18.00
2023-05-24T11:57:14.142Z,18.50
2023-05-24T12:02:17.012Z,18.50
2023-05-24T12:07:19.527Z,18.00
2023-05-24T12:12:30.281Z,17.60
2023-05-24T12:17:36.790Z,17.50
2023-05-24T12:22:39.315Z,17.40
2023-05-24T12:27:48.367Z,17.60
2023-05-24T12:32:54.343Z,17.60
2023-05-24T12:38:00.255Z,17.30
2023-05-24T12:43:04.812Z,17.50
2023-05-24T12:48:08.849Z,18.00
2023-05-24T12:53:11.839Z,17.90
2023-05-24T12:58:17.210Z,17.70
2023-05-24T13:03:19.729Z,17.30
2023-05-24T13:08:22.726Z,17.20
2023-05-24T13:13:25.415Z,16.80
2023-05-24T13:18:28.180Z,17.10
2023-05-24T13:23:31.661Z,16.80
2023-05-24T13:28:34.483Z,16.80
2023-05-24T13:33:37.921Z,16.90
2023-05-24T13:38:40.727Z,17.00
2023-05-24T13:43:43.295Z,16.80
2023-05-24T13:48:45.830Z,16.80
2023-05-24T13:53:48.579Z,17.10
2023-05-24T13:58:51.505Z,17.00
2023-05-24T14:03:54.455Z,17.00
2023-05-24T14:08:57.143Z,16.50
2023-05-24T14:19:06.405Z,17.60
2023-05-24T14:24:09.810Z,17.80
2023-05-24T14:29:12.409Z,17.80
2023-05-24T14:34:14.948Z,18.00
2023-05-24T14:39:17.559Z,17.70
2023-05-24T14:44:20.161Z,17.20
2023-05-24T14:49:22.660Z,17.00
2023-05-24T14:54:25.074Z,17.20
2023-05-24T14:59:27.649Z,17.50
2023-05-24T15:04:30.387Z,17.50
2023-05-24T15:09:32.988Z,17.40
2023-05-24T15:14:35.419Z,17.40
2023-05-24T15:19:38.501Z,17.40
2023-05-24T15:24:41.073Z,17.40
2023-05-24T15:29:43.530Z,17.40
2023-05-24T15:34:46.042Z,17.50
2023-05-24T15:39:49.589Z,17.00
2023-05-24T15:44:52.153Z,16.80
2023-05-24T15:49:55.222Z,16.90
2023-05-24T15:54:57.695Z,16.50
2023-05-24T16:00:01.355Z,16.40
2023-05-24T16:05:04.038Z,16.10
2023-05-24T16:10:07.165Z,16.10
2023-05-24T16:15:10.603Z,16.20
2023-05-24T16:20:13.427Z,16.40
2023-05-24T16:25:16.143Z,16.70
2023-05-24T16:30:19.031Z,16.60
2023-05-24T16:35:21.465Z,16.50
2023-05-24T16:40:23.927Z,16.70
2023-05-24T16:45:26.405Z,16.30
2023-05-24T16:50:28.902Z,16.30
2023-05-24T16:55:31.458Z,16.20
2023-05-24T17:00:33.963Z,15.80
2023-05-24T17:05:36.446Z,16.00
2023-05-24T17:10:39.078Z,15.90
2023-05-24T17:15:41.767Z,16.00
2023-05-24T17:20:44.672Z,16.00
2023-05-24T17:25:47.401Z,16.10
2023-05-24T17:30:49.954Z,15.70
2023-05-24T17:35:52.952Z,15.80
2023-05-24T17:40:59.842Z,15.60
2023-05-24T17:46:04.209Z,15.20
2023-05-24T17:51:08.997Z,15.10
2023-05-24T17:56:12.052Z,15.20
2023-05-24T18:01:15.368Z,15.00
2023-05-24T18:06:17.892Z,15.10
2023-05-24T18:11:20.342Z,15.50
2023-05-24T18:16:22.982Z,15.20
2023-05-24T18:21:25.539Z,15.30
2023-05-24T18:26:28.316Z,15.10
2023-05-24T18:31:30.925Z,15.10
2023-05-24T18:36:33.428Z,15.20
2023-05-24T18:41:36.074Z,15.20
2023-05-24T18:46:38.933Z,15.30
2023-05-24T18:51:41.577Z,15.30
2023-05-24T18:56:45.662Z,15.70
2023-05-24T19:01:48.263Z,15.70
2023-05-24T19:06:51.093Z,15.70
2023-05-24T19:11:59.144Z,15.40
2023-05-24T19:17:01.686Z,15.70
2023-05-24T19:22:04.401Z,15.70
2023-05-24T19:27:07.125Z,15.60
2023-05-24T19:32:11.623Z,15.30
2023-05-24T19:37:15.793Z,15.30
2023-05-24T19:42:18.273Z,15.40
2023-05-24T19:47:20.991Z,15.60
2023-05-24T19:52:23.644Z,15.40
2023-05-24T19:57:26.516Z,15.60
2023-05-24T20:02:29.044Z,15.70
2023-05-24T20:07:31.942Z,15.70
2023-05-24T20:12:34.745Z,16.00
2023-05-24T20:17:37.368Z,15.70
2023-05-24T20:22:39.942Z,15.70
2023-05-24T20:27:42.993Z,15.60
2023-05-24T20:32:46.175Z,15.60
2023-05-24T20:37:48.760Z,15.40
2023-05-24T20:42:51.815Z,15.30
2023-05-24T20:47:54.884Z,15.40
2023-05-24T20:52:57.356Z,15.50
2023-05-24T20:57:59.857Z,15.10
2023-05-24T21:03:02.461Z,15.10
2023-05-24T21:08:05.146Z,15.20
2023-05-24T21:13:07.663Z,15.30
2023-05-24T21:18:10.187Z,15.50
2023-05-24T21:23:13.099Z,15.30
2023-05-24T21:28:15.653Z,15.40
2023-05-24T21:33:18.209Z,15.50
2023-05-24T21:38:20.702Z,15.60
2023-05-24T21:43:24.206Z,15.70
2023-05-24T21:48:26.841Z,15.70
2023-05-24T21:53:29.326Z,15.50
2023-05-24T21:58:31.916Z,15.40
2023-05-24T22:03:34.975Z,15.60
2023-05-24T22:08:37.566Z,15.70
2023-05-24T22:13:40.320Z,15.50
2023-05-24T22:18:42.853Z,15.30
2023-05-24T22:23:46.024Z,15.20
2023-05-24T22:28:56.457Z,15.30
2023-05-24T22:34:02.210Z,15.40
2023-05-24T22:39:05.620Z,15.60
2023-05-24T22:44:08.244Z,15.60
2023-05-24T22:49:13.412Z,15.90
2023-05-24T22:54:16.361Z,15.70
2023-05-24T22:59:18.862Z,15.60
2023-05-24T23:04:21.909Z,15.60
2023-05-24T23:09:34.727Z,15.50
2023-05-24T23:14:39.316Z,15.30
2023-05-24T23:19:43.957Z,15.50
2023-05-24T23:24:47.643Z,15.50
2023-05-24T23:29:50.178Z,15.30
2023-05-24T23:34:52.695Z,15.40
2023-05-24T23:39:55.314Z,15.50
2023-05-24T23:44:57.853Z,15.40
2023-05-24T23:50:00.435Z,15.30
2023-05-24T23:55:03.802Z,15.20
